sensor_id;sensor_type;location;lat;lon;timestamp;P1;durP1;ratioP1;P2;durP2;ratioP2
45842;SDS011;31563;51.744;8.252;2024-01-15T00:00:05;5.87;;;5.30;;
45842;SDS011;31563;51.744;8.252;2024-01-15T00:02:35;6.38;;;5.70;;
45842;SDS011;31563;51.744;8.252;2024-01-15T00:05:03;5.75;;;5.22;;
45842;SDS011;31563;51.744;8.252;2024-01-15T00:07:33;6.15;;;5.55;;
45842;SDS011;31563;51.744;8.252;2024-01-15T00:10:02;6.18;;;5.32;;
45842;SDS011;31563;51.744;8.252;2024-01-15T00:12:32;7.20;;;6.03;;
45842;SDS011;31563;51.744;8.252;2024-01-15T00:15:00;5.75;;;4.85;;
45842;SDS011;31563;51.744;8.252;2024-01-15T00:17:27;5.97;;;5.15;;
45842;SDS011;31563;51.744;8.252;2024-01-15T00:19:55;5.53;;;4.93;;
45842;SDS011;31563;51.744;8.252;2024-01-15T00:22:24;6.05;;;5.45;;
45842;SDS011;31563;51.744;8.252;2024-01-15T00:24:54;5.83;;;5.27;;
45842;SDS011;31563;51.744;8.252;2024-01-15T00:27:22;6.20;;;5.57;;
45842;SDS011;31563;51.744;8.252;2024-01-15T00:29:50;6.38;;;5.68;;
45842;SDS011;31563;51.744;8.252;2024-01-15T00:32:18;6.68;;;5.95;;
45842;SDS011;31563;51.744;8.252;2024-01-15T00:34:46;6.07;;;5.47;;
45842;SDS011;31563;51.744;8.252;2024-01-15T00:37:15;5.68;;;5.18;;
45842;SDS011;31563;51.744;8.252;2024-01-15T00:39:42;6.00;;;5.50;;
45842;SDS011;31563;51.744;8.252;2024-01-15T00:42:12;5.28;;;4.78;;
45842;SDS011;31563;51.744;8.252;2024-01-15T00:44:40;5.35;;;4.85;;
45842;SDS011;31563;51.744;8.252;2024-01-15T00:47:11;5.20;;;4.70;;
45842;SDS011;31563;51.744;8.252;2024-01-15T00:49:38;5.70;;;5.10;;
45842;SDS011;31563;51.744;8.252;2024-01-15T00:52:06;5.85;;;5.28;;
45842;SDS011;31563;51.744;8.252;2024-01-15T00:54:34;6.03;;;5.43;;
45842;SDS011;31563;51.744;8.252;2024-01-15T00:57:02;5.55;;;5.00;;
45842;SDS011;31563;51.744;8.252;2024-01-15T00:59:32;5.40;;;4.90;;
45842;SDS011;31563;51.744;8.252;2024-01-15T01:01:59;5.82;;;5.22;;
45842;SDS011;31563;51.744;8.252;2024-01-15T01:04:28;6.00;;;5.47;;
45842;SDS011;31563;51.744;8.252;2024-01-15T01:06:56;5.18;;;4.68;;
45842;SDS011;31563;51.744;8.252;2024-01-15T01:09:24;5.32;;;4.82;;
45842;SDS011;31563;51.744;8.252;2024-01-15T01:11:55;5.35;;;4.75;;
45842;SDS011;31563;51.744;8.252;2024-01-15T01:14:23;5.13;;;4.63;;
45842;SDS011;31563;51.744;8.252;2024-01-15T01:16:52;4.80;;;4.35;;
45842;SDS011;31563;51.744;8.252;2024-01-15T01:19:20;5.17;;;4.50;;
45842;SDS011;31563;51.744;8.252;2024-01-15T01:21:48;5.07;;;4.57;;
45842;SDS011;31563;51.744;8.252;2024-01-15T01:24:17;6.07;;;5.43;;
45842;SDS011;31563;51.744;8.252;2024-01-15T01:26:45;5.00;;;4.50;;
45842;SDS011;31563;51.744;8.252;2024-01-15T01:29:13;6.13;;;5.43;;
45842;SDS011;31563;51.744;8.252;2024-01-15T01:31:43;7.70;;;7.00;;
45842;SDS011;31563;51.744;8.252;2024-01-15T01:34:14;8.80;;;7.63;;
45842;SDS011;31563;51.744;8.252;2024-01-15T01:36:43;9.13;;;7.32;;
45842;SDS011;31563;51.744;8.252;2024-01-15T01:39:11;7.75;;;7.00;;
45842;SDS011;31563;51.744;8.252;2024-01-15T01:41:39;8.07;;;7.22;;
45842;SDS011;31563;51.744;8.252;2024-01-15T01:44:07;6.95;;;6.32;;
45842;SDS011;31563;51.744;8.252;2024-01-15T01:46:35;7.47;;;6.40;;
45842;SDS011;31563;51.744;8.252;2024-01-15T01:49:06;7.65;;;6.55;;
45842;SDS011;31563;51.744;8.252;2024-01-15T01:51:37;8.55;;;6.93;;
45842;SDS011;31563;51.744;8.252;2024-01-15T01:56:35;8.07;;;6.65;;
45842;SDS011;31563;51.744;8.252;2024-01-15T01:59:03;6.60;;;6.00;;
45842;SDS011;31563;51.744;8.252;2024-01-15T02:01:32;7.03;;;6.32;;
45842;SDS011;31563;51.744;8.252;2024-01-15T02:04:00;7.63;;;6.93;;
45842;SDS011;31563;51.744;8.252;2024-01-15T02:06:29;5.97;;;4.78;;
45842;SDS011;31563;51.744;8.252;2024-01-15T02:08:58;7.20;;;6.47;;
45842;SDS011;31563;51.744;8.252;2024-01-15T02:11:27;7.13;;;6.15;;
45842;SDS011;31563;51.744;8.252;2024-01-15T02:13:54;7.78;;;6.65;;
45842;SDS011;31563;51.744;8.252;2024-01-15T02:16:22;8.77;;;7.30;;
45842;SDS011;31563;51.744;8.252;2024-01-15T02:18:50;6.95;;;6.25;;
45842;SDS011;31563;51.744;8.252;2024-01-15T02:21:18;6.60;;;5.88;;
45842;SDS011;31563;51.744;8.252;2024-01-15T02:23:48;6.80;;;6.10;;
45842;SDS011;31563;51.744;8.252;2024-01-15T02:26:16;7.87;;;6.43;;
45842;SDS011;31563;51.744;8.252;2024-01-15T02:28:44;6.78;;;6.03;;
45842;SDS011;31563;51.744;8.252;2024-01-15T02:31:12;7.15;;;6.45;;
45842;SDS011;31563;51.744;8.252;2024-01-15T02:33:40;7.38;;;6.20;;
45842;SDS011;31563;51.744;8.252;2024-01-15T02:36:09;6.88;;;6.18;;
45842;SDS011;31563;51.744;8.252;2024-01-15T02:38:37;6.68;;;5.95;;
45842;SDS011;31563;51.744;8.252;2024-01-15T02:41:06;7.00;;;6.05;;
45842;SDS011;31563;51.744;8.252;2024-01-15T02:43:34;7.63;;;5.83;;
45842;SDS011;31563;51.744;8.252;2024-01-15T02:46:02;8.25;;;6.15;;
45842;SDS011;31563;51.744;8.252;2024-01-15T02:48:30;6.72;;;6.00;;
45842;SDS011;31563;51.744;8.252;2024-01-15T02:50:59;7.35;;;6.57;;
45842;SDS011;31563;51.744;8.252;2024-01-15T02:53:27;6.60;;;5.70;;
45842;SDS011;31563;51.744;8.252;2024-01-15T02:55:54;7.95;;;6.45;;
45842;SDS011;31563;51.744;8.252;2024-01-15T02:58:24;7.15;;;6.07;;
45842;SDS011;31563;51.744;8.252;2024-01-15T03:00:52;6.07;;;5.47;;
45842;SDS011;31563;51.744;8.252;2024-01-15T03:03:20;7.03;;;5.82;;
45842;SDS011;31563;51.744;8.252;2024-01-15T03:05:48;7.28;;;6.35;;
45842;SDS011;31563;51.744;8.252;2024-01-15T03:08:16;7.30;;;6.22;;
45842;SDS011;31563;51.744;8.252;2024-01-15T03:10:45;7.75;;;6.28;;
45842;SDS011;31563;51.744;8.252;2024-01-15T03:13:12;7.00;;;6.05;;
45842;SDS011;31563;51.744;8.252;2024-01-15T03:15:42;8.20;;;6.28;;
45842;SDS011;31563;51.744;8.252;2024-01-15T03:18:11;6.95;;;5.47;;
45842;SDS011;31563;51.744;8.252;2024-01-15T03:20:39;8.40;;;6.00;;
45842;SDS011;31563;51.744;8.252;2024-01-15T03:23:07;7.47;;;6.03;;
45842;SDS011;31563;51.744;8.252;2024-01-15T03:25:34;7.75;;;5.97;;
45842;SDS011;31563;51.744;8.252;2024-01-15T03:28:02;7.25;;;6.28;;
45842;SDS011;31563;51.744;8.252;2024-01-15T03:30:31;8.60;;;6.55;;
45842;SDS011;31563;51.744;8.252;2024-01-15T03:33:00;8.52;;;6.57;;
45842;SDS011;31563;51.744;8.252;2024-01-15T03:35:28;7.37;;;6.27;;
45842;SDS011;31563;51.744;8.252;2024-01-15T03:37:57;8.98;;;5.70;;
45842;SDS011;31563;51.744;8.252;2024-01-15T03:40:24;7.30;;;5.78;;
45842;SDS011;31563;51.744;8.252;2024-01-15T03:42:53;7.20;;;6.03;;
45842;SDS011;31563;51.744;8.252;2024-01-15T03:45:21;7.40;;;6.35;;
45842;SDS011;31563;51.744;8.252;2024-01-15T03:47:49;7.93;;;6.18;;
45842;SDS011;31563;51.744;8.252;2024-01-15T03:50:18;8.02;;;6.07;;
45842;SDS011;31563;51.744;8.252;2024-01-15T03:52:46;6.77;;;5.73;;
45842;SDS011;31563;51.744;8.252;2024-01-15T03:55:14;9.07;;;6.35;;
45842;SDS011;31563;51.744;8.252;2024-01-15T03:57:42;6.82;;;5.72;;
45842;SDS011;31563;51.744;8.252;2024-01-15T04:00:10;6.57;;;5.90;;
45842;SDS011;31563;51.744;8.252;2024-01-15T04:02:39;6.10;;;5.47;;
45842;SDS011;31563;51.744;8.252;2024-01-15T04:05:07;7.22;;;5.72;;
45842;SDS011;31563;51.744;8.252;2024-01-15T04:07:36;8.35;;;6.38;;
45842;SDS011;31563;51.744;8.252;2024-01-15T04:10:05;9.33;;;6.10;;
45842;SDS011;31563;51.744;8.252;2024-01-15T04:12:33;8.05;;;5.95;;
45842;SDS011;31563;51.744;8.252;2024-01-15T04:15:01;7.90;;;5.43;;
45842;SDS011;31563;51.744;8.252;2024-01-15T04:17:29;7.28;;;5.88;;
45842;SDS011;31563;51.744;8.252;2024-01-15T04:19:57;7.85;;;5.65;;
45842;SDS011;31563;51.744;8.252;2024-01-15T04:22:26;7.90;;;5.63;;
45842;SDS011;31563;51.744;8.252;2024-01-15T04:24:55;6.88;;;4.85;;
45842;SDS011;31563;51.744;8.252;2024-01-15T04:27:23;7.68;;;5.55;;
45842;SDS011;31563;51.744;8.252;2024-01-15T04:29:51;6.53;;;5.57;;
45842;SDS011;31563;51.744;8.252;2024-01-15T04:32:20;7.25;;;5.78;;
45842;SDS011;31563;51.744;8.252;2024-01-15T04:34:48;6.50;;;5.32;;
45842;SDS011;31563;51.744;8.252;2024-01-15T04:37:16;7.00;;;5.82;;
45842;SDS011;31563;51.744;8.252;2024-01-15T04:39:44;7.03;;;5.60;;
45842;SDS011;31563;51.744;8.252;2024-01-15T04:42:13;12.80;;;9.82;;
45842;SDS011;31563;51.744;8.252;2024-01-15T04:44:41;8.70;;;7.77;;
45842;SDS011;31563;51.744;8.252;2024-01-15T04:47:09;10.15;;;8.55;;
45842;SDS011;31563;51.744;8.252;2024-01-15T04:49:37;9.93;;;8.10;;
45842;SDS011;31563;51.744;8.252;2024-01-15T04:52:05;8.85;;;7.72;;
45842;SDS011;31563;51.744;8.252;2024-01-15T04:54:33;9.40;;;8.10;;
45842;SDS011;31563;51.744;8.252;2024-01-15T04:57:01;10.93;;;7.93;;
45842;SDS011;31563;51.744;8.252;2024-01-15T04:59:30;9.77;;;8.10;;
45842;SDS011;31563;51.744;8.252;2024-01-15T05:01:58;9.50;;;6.03;;
45842;SDS011;31563;51.744;8.252;2024-01-15T05:04:25;7.60;;;6.15;;
45842;SDS011;31563;51.744;8.252;2024-01-15T05:06:53;9.00;;;6.03;;
45842;SDS011;31563;51.744;8.252;2024-01-15T05:09:22;7.90;;;6.47;;
45842;SDS011;31563;51.744;8.252;2024-01-15T05:11:50;6.88;;;6.18;;
45842;SDS011;31563;51.744;8.252;2024-01-15T05:14:18;7.40;;;5.65;;
45842;SDS011;31563;51.744;8.252;2024-01-15T05:16:50;9.60;;;6.07;;
45842;SDS011;31563;51.744;8.252;2024-01-15T05:19:18;7.88;;;6.13;;
45842;SDS011;31563;51.744;8.252;2024-01-15T05:21:46;7.05;;;5.28;;
45842;SDS011;31563;51.744;8.252;2024-01-15T05:24:14;7.28;;;5.63;;
45842;SDS011;31563;51.744;8.252;2024-01-15T05:26:42;6.47;;;5.70;;
45842;SDS011;31563;51.744;8.252;2024-01-15T05:29:10;8.00;;;5.47;;
45842;SDS011;31563;51.744;8.252;2024-01-15T05:31:38;8.35;;;5.60;;
45842;SDS011;31563;51.744;8.252;2024-01-15T05:34:07;7.55;;;5.63;;
45842;SDS011;31563;51.744;8.252;2024-01-15T05:36:35;8.27;;;5.83;;
45842;SDS011;31563;51.744;8.252;2024-01-15T05:39:03;6.88;;;5.47;;
45842;SDS011;31563;51.744;8.252;2024-01-15T05:41:31;5.68;;;5.13;;
45842;SDS011;31563;51.744;8.252;2024-01-15T05:43:59;5.53;;;4.72;;
45842;SDS011;31563;51.744;8.252;2024-01-15T05:46:27;6.93;;;4.80;;
45842;SDS011;31563;51.744;8.252;2024-01-15T05:48:55;6.80;;;4.53;;
45842;SDS011;31563;51.744;8.252;2024-01-15T05:51:24;6.38;;;4.68;;
45842;SDS011;31563;51.744;8.252;2024-01-15T05:53:52;7.87;;;4.70;;
45842;SDS011;31563;51.744;8.252;2024-01-15T05:56:20;7.65;;;4.68;;
45842;SDS011;31563;51.744;8.252;2024-01-15T05:58:52;5.75;;;4.30;;
45842;SDS011;31563;51.744;8.252;2024-01-15T06:01:20;5.68;;;4.50;;
45842;SDS011;31563;51.744;8.252;2024-01-15T06:03:48;5.75;;;4.72;;
45842;SDS011;31563;51.744;8.252;2024-01-15T06:06:16;6.35;;;4.72;;
45842;SDS011;31563;51.744;8.252;2024-01-15T06:08:45;5.60;;;4.15;;
45842;SDS011;31563;51.744;8.252;2024-01-15T06:11:14;7.95;;;5.90;;
45842;SDS011;31563;51.744;8.252;2024-01-15T06:13:42;10.30;;;7.18;;
45842;SDS011;31563;51.744;8.252;2024-01-15T06:16:13;8.68;;;6.00;;
45842;SDS011;31563;51.744;8.252;2024-01-15T06:18:42;12.48;;;5.78;;
45842;SDS011;31563;51.744;8.252;2024-01-15T06:21:11;10.25;;;5.30;;
45842;SDS011;31563;51.744;8.252;2024-01-15T06:23:40;11.98;;;6.63;;
45842;SDS011;31563;51.744;8.252;2024-01-15T06:26:11;10.35;;;5.60;;
45842;SDS011;31563;51.744;8.252;2024-01-15T06:28:39;7.75;;;5.43;;
45842;SDS011;31563;51.744;8.252;2024-01-15T06:31:07;9.20;;;5.38;;
45842;SDS011;31563;51.744;8.252;2024-01-15T06:33:35;7.78;;;5.22;;
45842;SDS011;31563;51.744;8.252;2024-01-15T06:36:03;6.82;;;4.53;;
45842;SDS011;31563;51.744;8.252;2024-01-15T06:38:33;6.40;;;5.18;;
45842;SDS011;31563;51.744;8.252;2024-01-15T06:41:01;7.45;;;4.78;;
45842;SDS011;31563;51.744;8.252;2024-01-15T06:43:30;7.07;;;4.65;;
45842;SDS011;31563;51.744;8.252;2024-01-15T06:45:58;7.20;;;4.40;;
45842;SDS011;31563;51.744;8.252;2024-01-15T06:48:32;7.57;;;4.88;;
45842;SDS011;31563;51.744;8.252;2024-01-15T06:51:00;8.30;;;4.68;;
45842;SDS011;31563;51.744;8.252;2024-01-15T06:53:28;5.68;;;4.00;;
45842;SDS011;31563;51.744;8.252;2024-01-15T06:55:56;6.00;;;4.18;;
45842;SDS011;31563;51.744;8.252;2024-01-15T06:58:24;5.38;;;3.95;;
45842;SDS011;31563;51.744;8.252;2024-01-15T07:00:53;5.20;;;4.03;;
45842;SDS011;31563;51.744;8.252;2024-01-15T07:03:21;7.47;;;4.60;;
45842;SDS011;31563;51.744;8.252;2024-01-15T07:05:49;6.57;;;3.83;;
45842;SDS011;31563;51.744;8.252;2024-01-15T07:08:17;6.95;;;4.32;;
45842;SDS011;31563;51.744;8.252;2024-01-15T07:10:45;7.78;;;5.95;;
45842;SDS011;31563;51.744;8.252;2024-01-15T07:13:13;11.27;;;7.35;;
45842;SDS011;31563;51.744;8.252;2024-01-15T07:15:41;9.32;;;7.28;;
45842;SDS011;31563;51.744;8.252;2024-01-15T07:18:10;8.05;;;5.90;;
45842;SDS011;31563;51.744;8.252;2024-01-15T07:20:38;7.40;;;5.53;;
45842;SDS011;31563;51.744;8.252;2024-01-15T07:23:06;8.48;;;5.80;;
45842;SDS011;31563;51.744;8.252;2024-01-15T07:25:34;6.57;;;4.35;;
45842;SDS011;31563;51.744;8.252;2024-01-15T07:28:03;7.22;;;4.50;;
45842;SDS011;31563;51.744;8.252;2024-01-15T07:30:31;5.38;;;4.07;;
45842;SDS011;31563;51.744;8.252;2024-01-15T07:33:01;7.45;;;5.15;;
45842;SDS011;31563;51.744;8.252;2024-01-15T07:35:32;7.13;;;4.63;;
45842;SDS011;31563;51.744;8.252;2024-01-15T07:38:00;6.60;;;4.40;;
45842;SDS011;31563;51.744;8.252;2024-01-15T07:40:27;6.97;;;4.43;;
45842;SDS011;31563;51.744;8.252;2024-01-15T07:42:55;6.60;;;4.22;;
45842;SDS011;31563;51.744;8.252;2024-01-15T07:45:23;5.97;;;4.05;;
45842;SDS011;31563;51.744;8.252;2024-01-15T07:47:51;5.22;;;3.80;;
45842;SDS011;31563;51.744;8.252;2024-01-15T07:50:19;5.53;;;3.90;;
45842;SDS011;31563;51.744;8.252;2024-01-15T07:52:49;6.10;;;4.07;;
45842;SDS011;31563;51.744;8.252;2024-01-15T07:55:17;6.90;;;3.95;;
45842;SDS011;31563;51.744;8.252;2024-01-15T07:57:45;6.60;;;4.25;;
45842;SDS011;31563;51.744;8.252;2024-01-15T08:00:24;4.63;;;3.37;;
45842;SDS011;31563;51.744;8.252;2024-01-15T08:02:52;4.97;;;3.53;;
45842;SDS011;31563;51.744;8.252;2024-01-15T08:05:20;5.85;;;3.47;;
45842;SDS011;31563;51.744;8.252;2024-01-15T08:07:50;6.47;;;3.95;;
45842;SDS011;31563;51.744;8.252;2024-01-15T08:10:21;4.00;;;3.55;;
45842;SDS011;31563;51.744;8.252;2024-01-15T08:12:49;4.55;;;3.60;;
45842;SDS011;31563;51.744;8.252;2024-01-15T08:15:17;5.30;;;3.65;;
45842;SDS011;31563;51.744;8.252;2024-01-15T08:17:45;5.95;;;4.32;;
45842;SDS011;31563;51.744;8.252;2024-01-15T08:20:13;4.85;;;3.60;;
45842;SDS011;31563;51.744;8.252;2024-01-15T08:22:42;5.85;;;3.83;;
45842;SDS011;31563;51.744;8.252;2024-01-15T08:25:11;4.97;;;3.90;;
45842;SDS011;31563;51.744;8.252;2024-01-15T08:27:39;6.93;;;4.20;;
45842;SDS011;31563;51.744;8.252;2024-01-15T08:30:08;6.90;;;4.30;;
45842;SDS011;31563;51.744;8.252;2024-01-15T08:32:37;33.22;;;8.32;;
45842;SDS011;31563;51.744;8.252;2024-01-15T08:35:08;24.42;;;8.77;;
45842;SDS011;31563;51.744;8.252;2024-01-15T08:37:37;24.90;;;8.45;;
45842;SDS011;31563;51.744;8.252;2024-01-15T08:40:06;32.93;;;8.57;;
45842;SDS011;31563;51.744;8.252;2024-01-15T08:42:36;25.00;;;7.50;;
45842;SDS011;31563;51.744;8.252;2024-01-15T08:45:04;26.00;;;8.13;;
45842;SDS011;31563;51.744;8.252;2024-01-15T08:47:32;18.45;;;7.25;;
45842;SDS011;31563;51.744;8.252;2024-01-15T08:50:00;12.95;;;6.28;;
45842;SDS011;31563;51.744;8.252;2024-01-15T08:52:29;24.58;;;7.65;;
45842;SDS011;31563;51.744;8.252;2024-01-15T08:54:57;20.73;;;6.68;;
45842;SDS011;31563;51.744;8.252;2024-01-15T08:57:27;22.30;;;6.60;;
45842;SDS011;31563;51.744;8.252;2024-01-15T08:59:56;17.27;;;7.70;;
45842;SDS011;31563;51.744;8.252;2024-01-15T09:02:24;14.77;;;9.88;;
45842;SDS011;31563;51.744;8.252;2024-01-15T09:04:52;11.88;;;10.48;;
45842;SDS011;31563;51.744;8.252;2024-01-15T09:07:20;10.50;;;8.55;;
45842;SDS011;31563;51.744;8.252;2024-01-15T09:09:48;12.57;;;7.55;;
45842;SDS011;31563;51.744;8.252;2024-01-15T09:12:16;10.18;;;7.15;;
45842;SDS011;31563;51.744;8.252;2024-01-15T09:14:44;8.35;;;6.68;;
45842;SDS011;31563;51.744;8.252;2024-01-15T09:17:14;8.23;;;6.20;;
45842;SDS011;31563;51.744;8.252;2024-01-15T09:19:42;11.13;;;6.33;;
45842;SDS011;31563;51.744;8.252;2024-01-15T09:22:10;7.80;;;6.28;;
45842;SDS011;31563;51.744;8.252;2024-01-15T09:24:40;10.02;;;6.00;;
45842;SDS011;31563;51.744;8.252;2024-01-15T09:27:08;8.32;;;5.32;;
45842;SDS011;31563;51.744;8.252;2024-01-15T09:29:36;13.43;;;5.72;;
45842;SDS011;31563;51.744;8.252;2024-01-15T09:32:06;6.85;;;5.03;;
45842;SDS011;31563;51.744;8.252;2024-01-15T09:34:35;5.95;;;3.92;;
45842;SDS011;31563;51.744;8.252;2024-01-15T09:37:04;9.15;;;4.22;;
45842;SDS011;31563;51.744;8.252;2024-01-15T09:39:32;5.38;;;4.28;;
45842;SDS011;31563;51.744;8.252;2024-01-15T09:42:00;6.32;;;4.15;;
45842;SDS011;31563;51.744;8.252;2024-01-15T09:44:29;4.97;;;3.90;;
45842;SDS011;31563;51.744;8.252;2024-01-15T09:46:58;4.57;;;3.92;;
45842;SDS011;31563;51.744;8.252;2024-01-15T09:49:26;4.53;;;3.80;;
45842;SDS011;31563;51.744;8.252;2024-01-15T09:51:57;4.93;;;3.90;;
45842;SDS011;31563;51.744;8.252;2024-01-15T09:54:36;4.00;;;3.40;;
45842;SDS011;31563;51.744;8.252;2024-01-15T09:57:06;16.23;;;5.60;;
45842;SDS011;31563;51.744;8.252;2024-01-15T09:59:34;9.93;;;3.85;;
45842;SDS011;31563;51.744;8.252;2024-01-15T10:02:03;10.45;;;3.97;;
45842;SDS011;31563;51.744;8.252;2024-01-15T10:04:32;8.93;;;3.75;;
45842;SDS011;31563;51.744;8.252;2024-01-15T10:07:02;8.20;;;3.50;;
45842;SDS011;31563;51.744;8.252;2024-01-15T10:09:32;9.57;;;3.05;;
45842;SDS011;31563;51.744;8.252;2024-01-15T10:12:01;9.05;;;3.53;;
45842;SDS011;31563;51.744;8.252;2024-01-15T10:14:29;9.70;;;2.67;;
45842;SDS011;31563;51.744;8.252;2024-01-15T10:16:58;6.82;;;2.35;;
45842;SDS011;31563;51.744;8.252;2024-01-15T10:19:26;8.60;;;2.80;;
45842;SDS011;31563;51.744;8.252;2024-01-15T10:21:55;8.20;;;3.22;;
45842;SDS011;31563;51.744;8.252;2024-01-15T10:24:24;13.02;;;3.90;;
45842;SDS011;31563;51.744;8.252;2024-01-15T10:26:54;15.60;;;4.80;;
45842;SDS011;31563;51.744;8.252;2024-01-15T10:32:00;13.48;;;4.15;;
45842;SDS011;31563;51.744;8.252;2024-01-15T10:34:30;16.65;;;3.90;;
45842;SDS011;31563;51.744;8.252;2024-01-15T10:36:58;15.60;;;4.35;;
45842;SDS011;31563;51.744;8.252;2024-01-15T10:39:27;21.10;;;3.85;;
45842;SDS011;31563;51.744;8.252;2024-01-15T10:41:56;10.90;;;3.75;;
45842;SDS011;31563;51.744;8.252;2024-01-15T10:44:25;17.25;;;3.85;;
45842;SDS011;31563;51.744;8.252;2024-01-15T10:46:52;10.05;;;3.08;;
45842;SDS011;31563;51.744;8.252;2024-01-15T10:49:22;11.52;;;3.65;;
45842;SDS011;31563;51.744;8.252;2024-01-15T10:51:57;14.90;;;3.60;;
45842;SDS011;31563;51.744;8.252;2024-01-15T10:54:27;16.58;;;3.97;;
45842;SDS011;31563;51.744;8.252;2024-01-15T10:56:56;12.13;;;3.25;;
45842;SDS011;31563;51.744;8.252;2024-01-15T10:59:24;13.00;;;3.25;;
45842;SDS011;31563;51.744;8.252;2024-01-15T11:01:52;17.48;;;3.88;;
45842;SDS011;31563;51.744;8.252;2024-01-15T11:04:22;14.85;;;3.08;;
45842;SDS011;31563;51.744;8.252;2024-01-15T11:06:53;11.90;;;3.83;;
45842;SDS011;31563;51.744;8.252;2024-01-15T11:09:23;14.48;;;3.63;;
45842;SDS011;31563;51.744;8.252;2024-01-15T11:12:06;8.90;;;3.15;;
45842;SDS011;31563;51.744;8.252;2024-01-15T11:14:35;12.70;;;3.03;;
45842;SDS011;31563;51.744;8.252;2024-01-15T11:17:05;11.68;;;3.53;;
45842;SDS011;31563;51.744;8.252;2024-01-15T11:19:37;11.27;;;3.10;;
45842;SDS011;31563;51.744;8.252;2024-01-15T11:25:18;12.52;;;2.92;;
45842;SDS011;31563;51.744;8.252;2024-01-15T11:27:47;13.45;;;3.03;;
45842;SDS011;31563;51.744;8.252;2024-01-15T11:30:18;13.27;;;3.22;;
45842;SDS011;31563;51.744;8.252;2024-01-15T11:32:47;11.80;;;3.03;;
45842;SDS011;31563;51.744;8.252;2024-01-15T11:35:15;9.82;;;2.70;;
45842;SDS011;31563;51.744;8.252;2024-01-15T11:37:58;11.77;;;2.95;;
45842;SDS011;31563;51.744;8.252;2024-01-15T11:40:36;12.00;;;2.85;;
45842;SDS011;31563;51.744;8.252;2024-01-15T11:43:07;11.00;;;2.78;;
45842;SDS011;31563;51.744;8.252;2024-01-15T11:45:35;14.70;;;2.78;;
45842;SDS011;31563;51.744;8.252;2024-01-15T11:48:12;9.80;;;2.33;;
45842;SDS011;31563;51.744;8.252;2024-01-15T11:50:42;10.95;;;2.58;;
45842;SDS011;31563;51.744;8.252;2024-01-15T11:53:18;10.10;;;2.50;;
45842;SDS011;31563;51.744;8.252;2024-01-15T11:55:54;14.38;;;2.60;;
45842;SDS011;31563;51.744;8.252;2024-01-15T11:58:27;5.95;;;2.45;;
45842;SDS011;31563;51.744;8.252;2024-01-15T12:00:55;8.90;;;2.15;;
45842;SDS011;31563;51.744;8.252;2024-01-15T12:03:24;8.55;;;2.28;;
45842;SDS011;31563;51.744;8.252;2024-01-15T12:05:52;7.28;;;2.08;;
45842;SDS011;31563;51.744;8.252;2024-01-15T12:08:21;4.32;;;2.45;;
45842;SDS011;31563;51.744;8.252;2024-01-15T12:10:49;3.15;;;2.47;;
45842;SDS011;31563;51.744;8.252;2024-01-15T12:13:17;3.15;;;1.40;;
45842;SDS011;31563;51.744;8.252;2024-01-15T12:15:47;3.50;;;1.38;;
45842;SDS011;31563;51.744;8.252;2024-01-15T12:18:17;3.03;;;1.30;;
45842;SDS011;31563;51.744;8.252;2024-01-15T12:20:46;3.20;;;1.42;;
45842;SDS011;31563;51.744;8.252;2024-01-15T12:23:14;2.20;;;0.98;;
45842;SDS011;31563;51.744;8.252;2024-01-15T12:25:44;1.67;;;1.00;;
45842;SDS011;31563;51.744;8.252;2024-01-15T12:28:13;4.18;;;1.48;;
45842;SDS011;31563;51.744;8.252;2024-01-15T12:30:42;2.47;;;1.60;;
45842;SDS011;31563;51.744;8.252;2024-01-15T12:33:17;2.90;;;1.70;;
45842;SDS011;31563;51.744;8.252;2024-01-15T12:35:46;2.97;;;1.83;;
45842;SDS011;31563;51.744;8.252;2024-01-15T12:38:14;4.15;;;2.10;;
45842;SDS011;31563;51.744;8.252;2024-01-15T12:40:43;2.60;;;1.42;;
45842;SDS011;31563;51.744;8.252;2024-01-15T12:43:13;3.58;;;1.98;;
45842;SDS011;31563;51.744;8.252;2024-01-15T12:45:40;2.17;;;1.70;;
45842;SDS011;31563;51.744;8.252;2024-01-15T12:48:09;5.05;;;2.10;;
45842;SDS011;31563;51.744;8.252;2024-01-15T12:50:42;3.55;;;1.85;;
45842;SDS011;31563;51.744;8.252;2024-01-15T12:53:11;3.45;;;1.80;;
45842;SDS011;31563;51.744;8.252;2024-01-15T12:55:39;5.90;;;1.65;;
45842;SDS011;31563;51.744;8.252;2024-01-15T12:58:07;2.70;;;1.50;;
45842;SDS011;31563;51.744;8.252;2024-01-15T13:00:35;4.10;;;1.90;;
45842;SDS011;31563;51.744;8.252;2024-01-15T13:03:03;5.70;;;2.40;;
45842;SDS011;31563;51.744;8.252;2024-01-15T13:05:32;4.57;;;2.40;;
45842;SDS011;31563;51.744;8.252;2024-01-15T13:08:02;7.38;;;1.67;;
45842;SDS011;31563;51.744;8.252;2024-01-15T13:10:31;5.45;;;1.98;;
45842;SDS011;31563;51.744;8.252;2024-01-15T13:12:59;3.78;;;1.35;;
45842;SDS011;31563;51.744;8.252;2024-01-15T13:15:28;2.92;;;1.17;;
45842;SDS011;31563;51.744;8.252;2024-01-15T13:17:56;4.60;;;1.42;;
45842;SDS011;31563;51.744;8.252;2024-01-15T13:20:23;5.93;;;1.35;;
45842;SDS011;31563;51.744;8.252;2024-01-15T13:22:52;3.58;;;1.27;;
45842;SDS011;31563;51.744;8.252;2024-01-15T13:25:21;3.80;;;1.42;;
45842;SDS011;31563;51.744;8.252;2024-01-15T13:27:49;5.80;;;1.20;;
45842;SDS011;31563;51.744;8.252;2024-01-15T13:30:17;4.20;;;1.55;;
45842;SDS011;31563;51.744;8.252;2024-01-15T13:32:45;3.38;;;1.35;;
45842;SDS011;31563;51.744;8.252;2024-01-15T13:35:14;3.08;;;1.27;;
45842;SDS011;31563;51.744;8.252;2024-01-15T13:37:42;4.15;;;1.27;;
45842;SDS011;31563;51.744;8.252;2024-01-15T13:40:10;4.63;;;1.08;;
45842;SDS011;31563;51.744;8.252;2024-01-15T13:42:44;3.65;;;1.17;;
45842;SDS011;31563;51.744;8.252;2024-01-15T13:45:13;4.22;;;1.00;;
45842;SDS011;31563;51.744;8.252;2024-01-15T13:47:42;3.30;;;0.88;;
45842;SDS011;31563;51.744;8.252;2024-01-15T13:50:10;2.33;;;1.02;;
45842;SDS011;31563;51.744;8.252;2024-01-15T13:52:38;2.22;;;0.80;;
45842;SDS011;31563;51.744;8.252;2024-01-15T13:55:07;3.28;;;1.10;;
45842;SDS011;31563;51.744;8.252;2024-01-15T13:57:36;3.40;;;1.23;;
45842;SDS011;31563;51.744;8.252;2024-01-15T14:00:06;3.80;;;1.60;;
45842;SDS011;31563;51.744;8.252;2024-01-15T14:02:37;2.38;;;0.85;;
45842;SDS011;31563;51.744;8.252;2024-01-15T14:05:05;2.97;;;0.98;;
45842;SDS011;31563;51.744;8.252;2024-01-15T14:07:33;3.92;;;1.15;;
45842;SDS011;31563;51.744;8.252;2024-01-15T14:10:01;3.55;;;1.00;;
45842;SDS011;31563;51.744;8.252;2024-01-15T14:12:30;3.38;;;1.67;;
45842;SDS011;31563;51.744;8.252;2024-01-15T14:14:58;6.47;;;1.80;;
45842;SDS011;31563;51.744;8.252;2024-01-15T14:17:28;3.70;;;1.50;;
45842;SDS011;31563;51.744;8.252;2024-01-15T14:19:56;3.90;;;1.40;;
45842;SDS011;31563;51.744;8.252;2024-01-15T14:22:24;2.17;;;1.13;;
45842;SDS011;31563;51.744;8.252;2024-01-15T14:24:52;4.20;;;1.25;;
45842;SDS011;31563;51.744;8.252;2024-01-15T14:27:20;4.93;;;1.33;;
45842;SDS011;31563;51.744;8.252;2024-01-15T14:29:49;2.97;;;0.90;;
45842;SDS011;31563;51.744;8.252;2024-01-15T14:32:17;4.22;;;1.52;;
45842;SDS011;31563;51.744;8.252;2024-01-15T14:34:46;3.78;;;1.15;;
45842;SDS011;31563;51.744;8.252;2024-01-15T14:37:15;3.67;;;0.80;;
45842;SDS011;31563;51.744;8.252;2024-01-15T14:39:43;2.60;;;0.90;;
45842;SDS011;31563;51.744;8.252;2024-01-15T14:42:11;3.40;;;0.90;;
45842;SDS011;31563;51.744;8.252;2024-01-15T14:44:39;4.28;;;1.10;;
45842;SDS011;31563;51.744;8.252;2024-01-15T14:47:07;27.90;;;3.85;;
45842;SDS011;31563;51.744;8.252;2024-01-15T14:49:35;42.97;;;6.97;;
45842;SDS011;31563;51.744;8.252;2024-01-15T14:52:05;40.08;;;7.07;;
45842;SDS011;31563;51.744;8.252;2024-01-15T14:54:33;30.55;;;6.10;;
45842;SDS011;31563;51.744;8.252;2024-01-15T14:57:01;32.40;;;5.32;;
45842;SDS011;31563;51.744;8.252;2024-01-15T14:59:29;34.20;;;4.72;;
45842;SDS011;31563;51.744;8.252;2024-01-15T15:01:57;29.45;;;5.90;;